Time;durP1;ratioP1;P1;durP2;ratioP2;P2;SDS_P1;SDS_P2;PMS_P1;PMS_P2;Temp;Humidity;BMP_temperature;BMP_pressure;BME280_temperature;BME280_humidity;BME280_pressure;Samples;Min_cycle;Max_cycle;Signal;HPM_P1;HPM_P2
2021/09/19 00:00:59;;;;;;;5.22;2.22;;;;;;;;;;5032434;28;20022;-69
2021/09/19 00:03:25;;;;;;;3.75;2.58;;;;;;;;;;5032825;28;20034;-70
2021/09/19 00:05:51;;;;;;;4.15;2.70;;;;;;;;;;5101138;28;20029;-70
2021/09/19 00:08:17;;;;;;;8.65;2.50;;;;;;;;;;5032475;28;20030;-71
2021/09/19 00:10:44;;;;;;;4.15;2.63;;;;;;;;;;5020105;28;20427;-70
2021/09/19 00:13:10;;;;;;;6.30;2.58;;;;;;;;;;5080913;28;20033;-70
2021/09/19 00:15:36;;;;;;;4.20;2.60;;;;;;;;;;5080980;28;20014;-71
2021/09/19 00:18:02;;;;;;;3.50;2.20;;;;;;;;;;5080929;28;20090;-70
2021/09/19 00:20:28;;;;;;;2.92;2.47;;;;;;;;;;5080569;28;20096;-70
2021/09/19 00:22:54;;;;;;;4.63;2.38;;;;;;;;;;5012648;28;20060;-70
2021/09/19 00:25:20;;;;;;;2.58;2.17;;;;;;;;;;5012845;28;20027;-70
2021/09/19 00:27:46;;;;;;;4.10;2.60;;;;;;;;;;5012765;28;20057;-71
2021/09/19 00:30:13;;;;;;;3.63;2.70;;;;;;;;;;5012686;28;20026;-70
2021/09/19 00:32:39;;;;;;;6.35;2.83;;;;;;;;;;5012638;28;20026;-70
2021/09/19 00:35:06;;;;;;;3.17;2.50;;;;;;;;;;5011112;28;20030;-71
2021/09/19 00:37:32;;;;;;;5.22;2.72;;;;;;;;;;5081051;28;20031;-71
2021/09/19 00:39:58;;;;;;;3.05;2.45;;;;;;;;;;5012432;28;20385;-72
2021/09/19 00:42:24;;;;;;;3.67;2.45;;;;;;;;;;5080827;28;20095;-72
2021/09/19 00:45:00;;;;;;;4.47;2.55;;;;;;;;;;5012453;28;20022;-70
2021/09/19 00:47:26;;;;;;;4.72;2.30;;;;;;;;;;5012518;28;20488;-71
2021/09/19 00:49:53;;;;;;;8.35;2.25;;;;;;;;;;5012162;28;20038;-72
2021/09/19 00:52:19;;;;;;;5.63;2.33;;;;;;;;;;5012611;28;20026;-71
2021/09/19 00:54:45;;;;;;;14.00;2.20;;;;;;;;;;5080175;28;20169;-70
2021/09/19 00:57:11;;;;;;;3.83;2.38;;;;;;;;;;5012254;28;20057;-70
2021/09/19 00:59:38;;;;;;;6.25;2.10;;;;;;;;;;5080050;28;20071;-70
2021/09/19 01:02:05;;;;;;;5.18;2.40;;;;;;;;;;5079606;28;20134;-70
2021/09/19 01:04:31;;;;;;;5.93;2.40;;;;;;;;;;5012431;28;20029;-70
2021/09/19 01:06:57;;;;;;;4.93;2.55;;;;;;;;;;5079824;28;20377;-69
2021/09/19 01:09:23;;;;;;;7.80;2.40;;;;;;;;;;5012066;28;20063;-70
2021/09/19 01:11:49;;;;;;;6.63;2.33;;;;;;;;;;5011464;28;20036;-71
2021/09/19 01:14:16;;;;;;;8.30;2.25;;;;;;;;;;5011731;28;20443;-70
2021/09/19 01:16:43;;;;;;;5.05;2.72;;;;;;;;;;5012254;28;20018;-71
2021/09/19 01:19:14;;;;;;;7.00;2.22;;;;;;;;;;5011785;28;20045;-71
2021/09/19 01:21:40;;;;;;;8.60;2.13;;;;;;;;;;5011971;28;20026;-71
2021/09/19 01:24:06;;;;;;;6.85;2.20;;;;;;;;;;5011274;28;20026;-68
2021/09/19 01:26:32;;;;;;;3.80;2.10;;;;;;;;;;5011302;28;20397;-72
2021/09/19 01:28:59;;;;;;;8.60;2.00;;;;;;;;;;5011507;28;20069;-70
2021/09/19 01:31:25;;;;;;;5.40;2.50;;;;;;;;;;5011793;28;20067;-68
2021/09/19 01:33:51;;;;;;;6.75;2.15;;;;;;;;;;5011188;28;20026;-68
2021/09/19 01:36:18;;;;;;;6.47;2.13;;;;;;;;;;5011021;28;20099;-68
2021/09/19 01:38:43;;;;;;;11.00;2.40;;;;;;;;;;5078710;28;20079;-70
2021/09/19 01:41:10;;;;;;;7.03;2.30;;;;;;;;;;5091762;27;20027;-69
2021/09/19 01:43:36;;;;;;;7.25;2.13;;;;;;;;;;5134985;27;20058;-70
2021/09/19 01:46:03;;;;;;;8.85;1.90;;;;;;;;;;5134543;27;20374;-68
2021/09/19 01:48:36;;;;;;;12.00;2.28;;;;;;;;;;5135436;27;20059;-69
2021/09/19 01:51:03;;;;;;;4.82;1.83;;;;;;;;;;5135350;27;20527;-69
2021/09/19 01:53:29;;;;;;;2.38;2.17;;;;;;;;;;5135164;27;20487;-70
2021/09/19 01:55:55;;;;;;;3.03;2.10;;;;;;;;;;5135174;27;20043;-71
2021/09/19 01:58:22;;;;;;;6.70;2.38;;;;;;;;;;5106136;27;20023;-71
2021/09/19 02:00:48;;;;;;;6.53;2.08;;;;;;;;;;5011405;28;20083;-71
2021/09/19 02:03:14;;;;;;;2.40;1.95;;;;;;;;;;5011315;28;20094;-71
2021/09/19 02:05:40;;;;;;;2.72;1.98;;;;;;;;;;5079130;28;20117;-71
2021/09/19 02:08:06;;;;;;;4.30;2.13;;;;;;;;;;5078425;28;20040;-71
2021/09/19 02:10:32;;;;;;;5.32;1.92;;;;;;;;;;5010983;28;20022;-70
2021/09/19 02:12:58;;;;;;;7.15;2.25;;;;;;;;;;5010703;28;20418;-71
2021/09/19 02:15:24;;;;;;;2.58;2.05;;;;;;;;;;5013826;28;20018;-70
2021/09/19 02:17:50;;;;;;;6.88;1.90;;;;;;;;;;5030544;28;20025;-70
2021/09/19 02:20:16;;;;;;;4.10;1.80;;;;;;;;;;5029950;28;20535;-70
2021/09/19 02:22:43;;;;;;;4.47;1.98;;;;;;;;;;5098263;28;20129;-70
2021/09/19 02:25:10;;;;;;;2.20;1.92;;;;;;;;;;5030370;28;20132;-70
2021/09/19 02:27:36;;;;;;;5.18;2.03;;;;;;;;;;5030434;28;20034;-71
2021/09/19 02:30:10;;;;;;;10.77;2.13;;;;;;;;;;5030259;28;20026;-72
2021/09/19 02:32:39;;;;;;;6.30;1.92;;;;;;;;;;5030822;28;20053;-71
2021/09/19 02:35:06;;;;;;;2.00;1.70;;;;;;;;;;5030581;28;20018;-70
2021/09/19 02:37:32;;;;;;;5.80;2.05;;;;;;;;;;5030594;28;20048;-72
2021/09/19 02:40:08;;;;;;;10.15;2.00;;;;;;;;;;5030261;28;20467;-71
2021/09/19 02:42:34;;;;;;;4.18;1.70;;;;;;;;;;5098309;28;20030;-69
2021/09/19 02:45:02;;;;;;;3.03;2.15;;;;;;;;;;5030148;28;20074;-71
2021/09/19 02:47:28;;;;;;;1.80;1.70;;;;;;;;;;5098467;28;20025;-70
2021/09/19 02:49:56;;;;;;;8.80;1.92;;;;;;;;;;5016333;28;20038;-71
2021/09/19 02:52:22;;;;;;;8.02;1.95;;;;;;;;;;5078089;28;20109;-71
2021/09/19 02:54:49;;;;;;;11.85;2.35;;;;;;;;;;5010342;28;20057;-71
2021/09/19 02:57:15;;;;;;;10.30;2.05;;;;;;;;;;5009706;28;20075;-70
2021/09/19 02:59:41;;;;;;;8.30;2.15;;;;;;;;;;5010329;28;20026;-71
2021/09/19 03:02:07;;;;;;;5.47;1.75;;;;;;;;;;5077729;28;20496;-70
2021/09/19 03:04:33;;;;;;;5.00;2.00;;;;;;;;;;5009912;28;20044;-69
2021/09/19 03:06:59;;;;;;;5.40;1.80;;;;;;;;;;5009828;28;20350;-69
2021/09/19 03:09:25;;;;;;;4.13;1.95;;;;;;;;;;5009817;28;20052;-71
2021/09/19 03:11:51;;;;;;;6.00;2.42;;;;;;;;;;5010129;28;20129;-70
2021/09/19 03:14:17;;;;;;;7.57;1.70;;;;;;;;;;5077630;28;20026;-69
2021/09/19 03:16:43;;;;;;;2.50;1.67;;;;;;;;;;5009780;28;20030;-70
2021/09/19 03:19:09;;;;;;;3.58;1.83;;;;;;;;;;5009338;28;20038;-70
2021/09/19 03:21:35;;;;;;;2.92;1.70;;;;;;;;;;5009744;28;20027;-70
2021/09/19 03:24:01;;;;;;;7.53;2.08;;;;;;;;;;5009376;28;20045;-70
2021/09/19 03:26:27;;;;;;;8.05;2.05;;;;;;;;;;5009531;28;20026;-70
2021/09/19 03:28:53;;;;;;;4.90;2.10;;;;;;;;;;5077032;28;20045;-71
2021/09/19 03:31:19;;;;;;;3.58;1.75;;;;;;;;;;5076988;28;20076;-70
2021/09/19 03:33:45;;;;;;;4.13;1.95;;;;;;;;;;5028867;28;20032;-69
2021/09/19 03:36:11;;;;;;;5.57;1.60;;;;;;;;;;5029018;28;20021;-70
2021/09/19 03:38:36;;;;;;;2.63;1.60;;;;;;;;;;5029210;28;20072;-70
2021/09/19 03:41:03;;;;;;;4.97;1.88;;;;;;;;;;5115062;28;20027;-70
2021/09/19 03:43:29;;;;;;;15.23;2.28;;;;;;;;;;5133150;28;20046;-71
2021/09/19 03:45:55;;;;;;;7.15;2.10;;;;;;;;;;5115016;28;20019;-69
2021/09/19 03:48:21;;;;;;;8.52;1.85;;;;;;;;;;5133430;28;20050;-70
2021/09/19 03:50:47;;;;;;;7.45;1.80;;;;;;;;;;5133630;28;20145;-71
2021/09/19 03:53:13;;;;;;;6.03;1.85;;;;;;;;;;5133470;28;20024;-70
2021/09/19 03:55:39;;;;;;;5.20;1.80;;;;;;;;;;5133672;28;20020;-70
2021/09/19 03:58:05;;;;;;;4.78;1.90;;;;;;;;;;5133482;28;20140;-70
2021/09/19 04:00:31;;;;;;;3.55;1.80;;;;;;;;;;5115015;28;20161;-70
2021/09/19 04:02:57;;;;;;;4.50;1.75;;;;;;;;;;5047241;28;20048;-70
2021/09/19 04:05:23;;;;;;;7.22;1.90;;;;;;;;;;5009182;28;20469;-71
2021/09/19 04:07:49;;;;;;;9.20;2.17;;;;;;;;;;5008932;28;20030;-71
2021/09/19 04:10:15;;;;;;;2.97;1.90;;;;;;;;;;5012399;28;20034;-71
2021/09/19 04:12:41;;;;;;;5.03;1.80;;;;;;;;;;5080676;28;20069;-70
2021/09/19 04:15:08;;;;;;;3.30;1.52;;;;;;;;;;5080646;28;20057;-71
2021/09/19 04:17:34;;;;;;;5.15;1.70;;;;;;;;;;5087475;28;20533;-72
2021/09/19 04:20:00;;;;;;;8.07;1.60;;;;;;;;;;5100612;28;20045;-70
2021/09/19 04:22:26;;;;;;;4.45;1.70;;;;;;;;;;5100483;28;20041;-70
2021/09/19 04:24:52;;;;;;;6.10;1.95;;;;;;;;;;5100393;28;20022;-69
2021/09/19 04:27:18;;;;;;;9.98;1.90;;;;;;;;;;5031748;28;20113;-70
2021/09/19 04:29:44;;;;;;;1.83;1.70;;;;;;;;;;5031912;28;20026;-69
2021/09/19 04:32:11;;;;;;;2.67;1.95;;;;;;;;;;5029647;28;20419;-69
2021/09/19 04:34:37;;;;;;;6.30;1.92;;;;;;;;;;5012360;28;20036;-69
2021/09/19 04:37:03;;;;;;;11.15;2.08;;;;;;;;;;5079985;28;20054;-69
2021/09/19 04:39:29;;;;;;;2.38;1.58;;;;;;;;;;5080008;28;20476;-69
2021/09/19 04:41:55;;;;;;;6.88;2.67;;;;;;;;;;5079537;28;20030;-70
2021/09/19 04:44:21;;;;;;;3.03;1.58;;;;;;;;;;5011918;28;20090;-70
2021/09/19 04:46:47;;;;;;;3.75;1.70;;;;;;;;;;5012024;28;20083;-72
2021/09/19 04:49:13;;;;;;;2.65;2.10;;;;;;;;;;5079794;28;20061;-70
2021/09/19 04:51:39;;;;;;;4.18;1.65;;;;;;;;;;5012183;28;20092;-70
2021/09/19 04:54:05;;;;;;;3.45;1.63;;;;;;;;;;5012172;28;20037;-70
2021/09/19 04:56:31;;;;;;;5.22;1.60;;;;;;;;;;5011596;28;20127;-70
2021/09/19 04:58:57;;;;;;;3.83;1.80;;;;;;;;;;5079723;28;20473;-70
2021/09/19 05:01:23;;;;;;;4.80;1.60;;;;;;;;;;5011837;28;20037;-72
2021/09/19 05:03:49;;;;;;;7.93;1.67;;;;;;;;;;5012096;28;20056;-72
2021/09/19 05:06:15;;;;;;;20.77;1.83;;;;;;;;;;5079992;28;20354;-72
2021/09/19 05:08:41;;;;;;;8.05;1.95;;;;;;;;;;5012213;28;20022;-72
2021/09/19 05:11:06;;;;;;;9.95;1.83;;;;;;;;;;5012090;28;20037;-72
2021/09/19 05:13:33;;;;;;;12.93;2.20;;;;;;;;;;5012040;28;20026;-72
2021/09/19 05:15:59;;;;;;;11.25;2.00;;;;;;;;;;5011553;28;20489;-71
2021/09/19 05:18:25;;;;;;;7.05;2.25;;;;;;;;;;5012138;28;20026;-71
2021/09/19 05:20:51;;;;;;;8.80;1.92;;;;;;;;;;5010713;28;20465;-72
2021/09/19 05:23:17;;;;;;;14.82;2.33;;;;;;;;;;5079191;28;20030;-71
2021/09/19 05:25:43;;;;;;;15.98;2.03;;;;;;;;;;5078776;28;20044;-71
2021/09/19 05:28:09;;;;;;;12.38;2.55;;;;;;;;;;5079013;28;20134;-69
2021/09/19 05:30:35;;;;;;;5.80;2.20;;;;;;;;;;5011223;28;20465;-69
2021/09/19 05:33:01;;;;;;;61.97;2.97;;;;;;;;;;5011137;28;20058;-69
2021/09/19 05:35:27;;;;;;;25.00;4.75;;;;;;;;;;5011224;28;20083;-74
2021/09/19 05:37:53;;;;;;;13.55;3.20;;;;;;;;;;5068397;27;20043;-72
2021/09/19 05:40:19;;;;;;;29.52;4.28;;;;;;;;;;5091120;27;20430;-71
2021/09/19 05:42:45;;;;;;;8.07;3.85;;;;;;;;;;5085884;27;20066;-71
2021/09/19 05:45:11;;;;;;;22.27;4.82;;;;;;;;;;5059530;27;20110;-73
2021/09/19 05:47:37;;;;;;;18.05;5.40;;;;;;;;;;5098866;28;20488;-72
2021/09/19 05:50:03;;;;;;;10.50;5.07;;;;;;;;;;5058207;27;20082;-72
2021/09/19 05:52:29;;;;;;;13.73;4.82;;;;;;;;;;5030713;28;20026;-73
2021/09/19 05:54:55;;;;;;;12.15;4.97;;;;;;;;;;5030971;28;20025;-75
2021/09/19 05:57:21;;;;;;;24.48;6.22;;;;;;;;;;5099402;28;20033;-72
2021/09/19 05:59:48;;;;;;;5.70;4.05;;;;;;;;;;5099068;28;20444;-65
2021/09/19 06:02:14;;;;;;;11.20;4.45;;;;;;;;;;5030048;28;20045;-68
2021/09/19 06:04:40;;;;;;;8.02;4.55;;;;;;;;;;5098336;28;20037;-66
2021/09/19 06:07:06;;;;;;;8.40;5.13;;;;;;;;;;5030568;28;20441;-66
2021/09/19 06:09:32;;;;;;;8.43;4.78;;;;;;;;;;5030456;28;20070;-68
2021/09/19 06:11:58;;;;;;;5.65;4.50;;;;;;;;;;5030746;28;20377;-66
2021/09/19 06:14:24;;;;;;;8.23;4.72;;;;;;;;;;5023232;28;20135;-65
2021/09/19 06:16:50;;;;;;;7.50;5.10;;;;;;;;;;5077941;28;20113;-70
2021/09/19 06:19:16;;;;;;;7.05;5.00;;;;;;;;;;5010511;28;20046;-66
2021/09/19 06:21:42;;;;;;;7.75;5.05;;;;;;;;;;5010411;28;20167;-65
2021/09/19 06:24:08;;;;;;;6.45;4.53;;;;;;;;;;5009795;28;20034;-64
2021/09/19 06:26:34;;;;;;;5.57;4.95;;;;;;;;;;5009812;28;20022;-65
2021/09/19 06:28:59;;;;;;;7.75;5.35;;;;;;;;;;5010273;28;20025;-65
2021/09/19 06:31:25;;;;;;;5.30;4.80;;;;;;;;;;5077290;28;20117;-66
2021/09/19 06:33:52;;;;;;;6.40;4.47;;;;;;;;;;5009652;28;20029;-64
2021/09/19 06:36:17;;;;;;;6.05;4.22;;;;;;;;;;5009938;28;20392;-73
2021/09/19 06:38:43;;;;;;;4.63;4.22;;;;;;;;;;5093962;28;20579;-67
2021/09/19 06:41:09;;;;;;;4.40;4.00;;;;;;;;;;5111830;27;20019;-69
2021/09/19 06:43:35;;;;;;;6.22;4.47;;;;;;;;;;5101216;27;20088;-63
2021/09/19 06:46:01;;;;;;;5.03;4.53;;;;;;;;;;5082214;27;20448;-72
2021/09/19 06:48:27;;;;;;;5.90;4.60;;;;;;;;;;5104857;27;20130;-63
2021/09/19 06:50:53;;;;;;;7.32;4.60;;;;;;;;;;5111983;27;20023;-65
2021/09/19 06:53:19;;;;;;;6.20;4.50;;;;;;;;;;5096771;28;20026;-65
2021/09/19 06:55:45;;;;;;;3.38;3.08;;;;;;;;;;5043309;28;20106;-65
2021/09/19 06:58:11;;;;;;;4.47;3.30;;;;;;;;;;5103630;27;20038;-76
2021/09/19 07:00:37;;;;;;;4.50;4.10;;;;;;;;;;5133977;28;20020;-76
2021/09/19 07:03:03;;;;;;;4.43;3.88;;;;;;;;;;5126102;28;20027;-65
2021/09/19 07:05:29;;;;;;;4.22;3.83;;;;;;;;;;5097280;28;20025;-74
2021/09/19 07:07:55;;;;;;;3.80;3.50;;;;;;;;;;5133130;28;20025;-64
2021/09/19 07:10:21;;;;;;;4.78;3.58;;;;;;;;;;5101339;28;20027;-76
2021/09/19 07:12:48;;;;;;;5.40;4.20;;;;;;;;;;5086712;28;20102;-68
2021/09/19 07:15:14;;;;;;;5.10;4.20;;;;;;;;;;5097824;28;20037;-69
2021/09/19 07:17:40;;;;;;;4.20;3.80;;;;;;;;;;5114714;28;20023;-65
2021/09/19 07:20:06;;;;;;;5.30;4.13;;;;;;;;;;5118477;28;20039;-78
2021/09/19 07:22:33;;;;;;;5.18;4.68;;;;;;;;;;5133392;28;20027;-75
2021/09/19 07:24:58;;;;;;;4.60;3.47;;;;;;;;;;5133379;27;20019;-71
2021/09/19 07:27:24;;;;;;;3.50;3.20;;;;;;;;;;5135831;28;20034;-62
2021/09/19 07:29:51;;;;;;;8.23;3.58;;;;;;;;;;5133994;27;20023;-62
2021/09/19 07:32:17;;;;;;;3.90;3.42;;;;;;;;;;5038236;28;20392;-69
2021/09/19 07:34:43;;;;;;;3.97;3.47;;;;;;;;;;5077865;28;20110;-78
2021/09/19 07:37:09;;;;;;;6.13;4.40;;;;;;;;;;5009760;28;20033;-77
2021/09/19 07:39:36;;;;;;;7.50;4.35;;;;;;;;;;5010493;28;20079;-71
2021/09/19 07:42:02;;;;;;;8.75;4.57;;;;;;;;;;5077737;28;20133;-74
2021/09/19 07:44:29;;;;;;;5.97;4.47;;;;;;;;;;5012566;28;20040;-73
2021/09/19 07:46:55;;;;;;;10.52;5.03;;;;;;;;;;5013217;28;20036;-77
2021/09/19 07:49:21;;;;;;;6.22;4.68;;;;;;;;;;5101990;28;20029;-73
2021/09/19 07:51:48;;;;;;;6.45;4.40;;;;;;;;;;5034878;27;20017;-73
2021/09/19 07:54:15;;;;;;;6.93;4.85;;;;;;;;;;5073365;27;20048;-73
2021/09/19 07:56:42;;;;;;;5.47;4.55;;;;;;;;;;5090411;27;20431;-76
2021/09/19 07:59:08;;;;;;;4.47;4.07;;;;;;;;;;5072152;27;20378;-71
2021/09/19 08:01:34;;;;;;;4.93;4.18;;;;;;;;;;5064272;27;20013;-72
2021/09/19 08:04:00;;;;;;;5.05;4.05;;;;;;;;;;5095425;27;20046;-74
2021/09/19 08:06:26;;;;;;;5.13;4.38;;;;;;;;;;5079414;27;20410;-74
2021/09/19 08:08:52;;;;;;;4.85;4.25;;;;;;;;;;5036771;27;20029;-72
2021/09/19 08:11:18;;;;;;;6.13;4.70;;;;;;;;;;5076022;27;20378;-75
2021/09/19 08:13:47;;;;;;;5.50;4.28;;;;;;;;;;5098319;27;20023;-75
2021/09/19 08:16:14;;;;;;;7.60;3.80;;;;;;;;;;5118487;27;20152;-69
2021/09/19 08:18:40;;;;;;;5.43;3.88;;;;;;;;;;5122208;27;20452;-70
2021/09/19 08:21:06;;;;;;;5.55;4.30;;;;;;;;;;5087534;27;20549;-71
2021/09/19 08:23:32;;;;;;;5.07;3.53;;;;;;;;;;5012776;28;20065;-72
2021/09/19 08:25:58;;;;;;;4.18;3.15;;;;;;;;;;5012933;28;20018;-67
2021/09/19 08:28:24;;;;;;;7.60;3.75;;;;;;;;;;5041027;27;20709;-71
2021/09/19 08:30:50;;;;;;;8.20;3.47;;;;;;;;;;5136755;27;20110;-72
2021/09/19 08:33:16;;;;;;;5.45;3.05;;;;;;;;;;5102750;27;20033;-73
2021/09/19 08:35:42;;;;;;;5.72;3.78;;;;;;;;;;5032684;28;20026;-74
2021/09/19 08:38:08;;;;;;;6.20;3.70;;;;;;;;;;5100146;28;20465;-70
2021/09/19 08:40:34;;;;;;;4.55;3.33;;;;;;;;;;5074994;27;20231;-71
2021/09/19 08:43:01;;;;;;;6.47;4.22;;;;;;;;;;5048336;27;20023;-71
2021/09/19 08:45:27;;;;;;;5.43;3.30;;;;;;;;;;5117909;27;20025;-70
2021/09/19 08:47:53;;;;;;;4.43;3.70;;;;;;;;;;5068354;27;20388;-71
2021/09/19 08:50:21;;;;;;;3.55;3.25;;;;;;;;;;5100759;28;20369;-70
2021/09/19 08:52:47;;;;;;;4.05;3.30;;;;;;;;;;5100860;28;20030;-69
2021/09/19 08:55:13;;;;;;;5.45;3.60;;;;;;;;;;5095142;28;20030;-73
2021/09/19 08:57:40;;;;;;;4.13;3.00;;;;;;;;;;5080585;28;20026;-74
2021/09/19 09:00:18;;;;;;;7.55;3.10;;;;;;;;;;5012251;28;20041;-73
2021/09/19 09:02:50;;;;;;;4.68;3.03;;;;;;;;;;5041019;27;20110;-73
2021/09/19 09:05:29;;;;;;;3.63;3.03;;;;;;;;;;5040248;27;20109;-74
2021/09/19 09:07:59;;;;;;;6.18;3.05;;;;;;;;;;5100501;28;20049;-73
2021/09/19 09:10:32;;;;;;;3.60;2.50;;;;;;;;;;5100154;28;20033;-73
2021/09/19 09:13:00;;;;;;;3.53;2.72;;;;;;;;;;5031875;28;20469;-73
2021/09/19 09:15:55;;;;;;;4.00;2.67;;;;;;;;;;5100351;28;20028;-74
2021/09/19 09:18:50;;;;;;;4.70;2.28;;;;;;;;;;5028174;28;20552;-75
2021/09/19 09:21:20;;;;;;;4.40;2.40;;;;;;;;;;5012778;28;20049;-75
2021/09/19 09:23:48;;;;;;;2.75;2.45;;;;;;;;;;5011969;28;20124;-74
2021/09/19 09:26:14;;;;;;;4.30;2.47;;;;;;;;;;5011989;28;20079;-75
2021/09/19 09:28:41;;;;;;;3.70;2.80;;;;;;;;;;5079602;28;20026;-74
2021/09/19 09:31:08;;;;;;;2.38;2.15;;;;;;;;;;5011965;28;20107;-75
2021/09/19 09:33:33;;;;;;;2.63;2.42;;;;;;;;;;5079737;28;20026;-75
2021/09/19 09:36:06;;;;;;;5.28;2.40;;;;;;;;;;5011831;28;20041;-72
2021/09/19 09:38:32;;;;;;;2.40;2.20;;;;;;;;;;5082600;28;20097;-72
2021/09/19 09:40:58;;;;;;;5.32;2.10;;;;;;;;;;5107776;27;20497;-70
2021/09/19 09:43:24;;;;;;;3.72;2.40;;;;;;;;;;5116992;27;20041;-71
2021/09/19 09:45:51;;;;;;;2.58;2.03;;;;;;;;;;5135472;27;20076;-71
2021/09/19 09:48:31;;;;;;;2.72;2.20;;;;;;;;;;5135843;27;20028;-71
2021/09/19 09:51:01;;;;;;;5.10;2.10;;;;;;;;;;5117463;27;20043;-71
2021/09/19 09:53:28;;;;;;;3.90;2.20;;;;;;;;;;5111915;27;20027;-71
2021/09/19 09:55:55;;;;;;;2.60;2.22;;;;;;;;;;5099578;28;20021;-71
2021/09/19 09:58:21;;;;;;;3.08;2.05;;;;;;;;;;5099518;28;20025;-71
2021/09/19 10:00:53;;;;;;;4.03;2.97;;;;;;;;;;5099673;28;20430;-71
2021/09/19 10:03:19;;;;;;;3.75;2.08;;;;;;;;;;5099301;28;20033;-70
2021/09/19 10:05:45;;;;;;;5.40;2.90;;;;;;;;;;5074838;27;20337;-70
2021/09/19 10:08:11;;;;;;;2.00;1.80;;;;;;;;;;5116857;27;20024;-70
2021/09/19 10:10:40;;;;;;;7.82;2.25;;;;;;;;;;5099048;28;20445;-70
2021/09/19 10:13:07;;;;;;;4.20;2.35;;;;;;;;;;5062946;27;20108;-70
2021/09/19 10:15:33;;;;;;;2.83;2.30;;;;;;;;;;5058372;27;20430;-70
2021/09/19 10:17:59;;;;;;;3.30;2.53;;;;;;;;;;5115397;27;20063;-70
2021/09/19 10:20:27;;;;;;;3.55;2.50;;;;;;;;;;5101991;27;20058;-70
2021/09/19 10:23:12;;;;;;;2.15;1.90;;;;;;;;;;5059221;27;20049;-71
2021/09/19 10:25:39;;;;;;;3.08;2.30;;;;;;;;;;5045208;27;20461;-71
2021/09/19 10:28:15;;;;;;;4.07;2.20;;;;;;;;;;5033250;27;20064;-71
2021/09/19 10:31:08;;;;;;;44.38;3.20;;;;;;;;;;5110650;27;20027;-72
2021/09/19 10:33:36;;;;;;;12.73;2.80;;;;;;;;;;5021509;28;20040;-72
2021/09/19 10:36:02;;;;;;;15.48;2.95;;;;;;;;;;5098860;28;20036;-72
2021/09/19 10:38:37;;;;;;;12.77;3.17;;;;;;;;;;5030249;28;20025;-73
2021/09/19 10:41:14;;;;;;;17.25;2.83;;;;;;;;;;5098474;28;20030;-73
2021/09/19 10:43:50;;;;;;;5.88;3.22;;;;;;;;;;5095388;28;20350;-70
2021/09/19 10:46:34;;;;;;;7.85;3.22;;;;;;;;;;5100057;27;20041;-70
2021/09/19 10:49:27;;;;;;;5.95;3.03;;;;;;;;;;5078429;28;20358;-70
2021/09/19 10:52:02;;;;;;;7.72;2.95;;;;;;;;;;5011420;28;20060;-72
2021/09/19 10:54:46;;;;;;;4.32;2.50;;;;;;;;;;5010514;28;20025;-71
2021/09/19 10:57:22;;;;;;;8.40;2.78;;;;;;;;;;5010667;28;20479;-72
2021/09/19 11:00:07;;;;;;;3.45;2.40;;;;;;;;;;5078377;28;20071;-74
2021/09/19 11:02:34;;;;;;;3.25;2.90;;;;;;;;;;5010348;28;20030;-72
2021/09/19 11:05:18;;;;;;;5.60;2.83;;;;;;;;;;5010788;28;20113;-71
2021/09/19 11:07:44;;;;;;;3.45;2.70;;;;;;;;;;5010482;28;20107;-72
2021/09/19 11:10:13;;;;;;;3.58;2.40;;;;;;;;;;5014689;28;20025;-71
2021/09/19 11:12:43;;;;;;;7.78;2.60;;;;;;;;;;5115387;28;20015;-71
2021/09/19 11:15:17;;;;;;;4.47;2.92;;;;;;;;;;5115562;28;20023;-70
2021/09/19 11:17:45;;;;;;;3.15;2.70;;;;;;;;;;5114510;28;20016;-70
2021/09/19 11:20:11;;;;;;;2.85;2.58;;;;;;;;;;5083391;27;20046;-71
2021/09/19 11:22:38;;;;;;;5.47;2.55;;;;;;;;;;5013359;28;20041;-70
2021/09/19 11:25:04;;;;;;;4.75;2.40;;;;;;;;;;5081710;28;20034;-70
2021/09/19 11:27:31;;;;;;;6.38;2.70;;;;;;;;;;5013456;28;20018;-70
2021/09/19 11:29:57;;;;;;;4.38;2.53;;;;;;;;;;5097882;28;20018;-71
2021/09/19 11:32:24;;;;;;;3.00;2.60;;;;;;;;;;5118698;27;20023;-71
2021/09/19 11:34:50;;;;;;;3.63;2.90;;;;;;;;;;5108975;27;20019;-73
2021/09/19 11:37:17;;;;;;;12.98;3.50;;;;;;;;;;5041676;27;20075;-69
2021/09/19 11:39:43;;;;;;;9.95;3.60;;;;;;;;;;5102191;28;20039;-72
2021/09/19 11:42:11;;;;;;;4.70;3.85;;;;;;;;;;5032953;28;20358;-75
2021/09/19 11:44:38;;;;;;;4.95;3.38;;;;;;;;;;5048209;27;20539;-71
2021/09/19 11:47:06;;;;;;;4.18;3.65;;;;;;;;;;5132905;27;20031;-71
2021/09/19 11:49:32;;;;;;;4.47;3.30;;;;;;;;;;5033487;28;20021;-71
2021/09/19 11:51:58;;;;;;;5.68;3.40;;;;;;;;;;5101497;28;20086;-74
2021/09/19 11:54:24;;;;;;;4.38;3.80;;;;;;;;;;5101546;28;20124;-73
2021/09/19 11:56:50;;;;;;;5.45;4.13;;;;;;;;;;5119155;27;20040;-73
2021/09/19 11:59:18;;;;;;;4.55;3.38;;;;;;;;;;5137476;27;20023;-73
2021/09/19 12:01:44;;;;;;;4.50;3.35;;;;;;;;;;5118999;27;20484;-71
2021/09/19 12:04:11;;;;;;;15.60;3.75;;;;;;;;;;5098182;28;20121;-75
2021/09/19 12:06:38;;;;;;;6.18;3.72;;;;;;;;;;5114658;27;20023;-75
2021/09/19 12:09:07;;;;;;;11.45;3.65;;;;;;;;;;5103210;28;20033;-74
2021/09/19 12:11:37;;;;;;;15.82;3.60;;;;;;;;;;5047094;27;20072;-75
2021/09/19 12:14:10;;;;;;;10.50;3.67;;;;;;;;;;5090234;27;20397;-75
2021/09/19 12:16:36;;;;;;;;;;;;;;;;;;5032983;28;20103;-73
2021/09/19 12:19:02;;;;;;;6.13;3.75;;;;;;;;;;5126225;27;20000;-73
2021/09/19 12:21:28;;;;;;;9.00;3.50;;;;;;;;;;5093607;27;20033;-74
2021/09/19 12:23:55;;;;;;;6.78;3.30;;;;;;;;;;5046753;27;20057;-73
2021/09/19 12:26:25;;;;;;;7.47;3.38;;;;;;;;;;5032556;28;20026;-73
2021/09/19 12:28:55;;;;;;;6.75;3.17;;;;;;;;;;5032672;28;20025;-73
2021/09/19 12:31:39;;;;;;;9.63;2.88;;;;;;;;;;5032660;28;20509;-78
2021/09/19 12:34:06;;;;;;;17.35;2.92;;;;;;;;;;5032611;28;20032;-76
2021/09/19 12:36:52;;;;;;;9.23;3.10;;;;;;;;;;5032653;28;20461;-76
2021/09/19 12:39:18;;;;;;;5.32;3.47;;;;;;;;;;5032337;28;20022;-76
2021/09/19 12:41:45;;;;;;;13.98;3.38;;;;;;;;;;5053060;27;20042;-78
2021/09/19 12:44:17;;;;;;;4.57;2.60;;;;;;;;;;5069506;27;20048;-73
2021/09/19 12:46:51;;;;;;;4.40;2.38;;;;;;;;;;5113361;27;20023;-79
2021/09/19 12:49:18;;;;;;;3.55;2.53;;;;;;;;;;5077691;27;20029;-75
2021/09/19 12:51:59;;;;;;;9.25;2.65;;;;;;;;;;5113627;27;20034;-79
2021/09/19 12:54:26;;;;;;;7.00;3.22;;;;;;;;;;5139570;27;20079;-86
2021/09/19 12:56:52;;;;;;;8.05;3.25;;;;;;;;;;5138698;27;20042;-83
2021/09/19 12:59:20;;;;;;;9.30;3.10;;;;;;;;;;5137119;27;20015;-73
2021/09/19 13:01:46;;;;;;;9.57;2.35;;;;;;;;;;5136290;27;20068;-74
2021/09/19 13:04:12;;;;;;;12.88;2.67;;;;;;;;;;5136532;27;20413;-77
2021/09/19 13:06:38;;;;;;;9.20;2.78;;;;;;;;;;5136337;27;20493;-77
2021/09/19 13:09:04;;;;;;;13.35;2.70;;;;;;;;;;5118252;27;20032;-76
2021/09/19 13:11:30;;;;;;;16.75;2.35;;;;;;;;;;5136468;27;20379;-76
2021/09/19 13:13:56;;;;;;;24.73;2.88;;;;;;;;;;5096791;27;20029;-75
2021/09/19 13:16:22;;;;;;;19.77;3.25;;;;;;;;;;5045135;27;20067;-75
2021/09/19 13:18:48;;;;;;;15.77;3.38;;;;;;;;;;5134190;27;20023;-74
2021/09/19 13:21:14;;;;;;;19.45;3.13;;;;;;;;;;5117345;27;20047;-75
2021/09/19 13:23:40;;;;;;;16.67;3.20;;;;;;;;;;5051061;27;20037;-77
2021/09/19 13:26:06;;;;;;;6.63;2.40;;;;;;;;;;5032030;28;20026;-76
2021/09/19 13:28:32;;;;;;;16.13;2.55;;;;;;;;;;5047911;27;20073;-77
2021/09/19 13:30:58;;;;;;;15.65;2.20;;;;;;;;;;5096372;27;20424;-75
2021/09/19 13:33:24;;;;;;;7.10;2.28;;;;;;;;;;5100274;28;20029;-76
2021/09/19 13:35:50;;;;;;;11.40;2.45;;;;;;;;;;5101104;28;20052;-76
2021/09/19 13:38:16;;;;;;;6.22;2.17;;;;;;;;;;5032370;28;20037;-77
2021/09/19 13:40:42;;;;;;;12.18;2.35;;;;;;;;;;5030992;28;20029;-69
2021/09/19 13:43:08;;;;;;;8.57;2.85;;;;;;;;;;5089627;27;20363;-74
2021/09/19 13:45:35;;;;;;;5.68;2.30;;;;;;;;;;5099597;28;20516;-76
2021/09/19 13:48:02;;;;;;;7.72;2.35;;;;;;;;;;5031312;28;20030;-75
2021/09/19 13:50:28;;;;;;;6.03;2.13;;;;;;;;;;5031231;28;20057;-74
2021/09/19 13:52:54;;;;;;;5.32;1.80;;;;;;;;;;5074180;27;20355;-74
2021/09/19 13:55:20;;;;;;;7.35;1.98;;;;;;;;;;5031652;28;20049;-74
2021/09/19 13:57:46;;;;;;;5.60;2.03;;;;;;;;;;5031281;28;20029;-75
2021/09/19 14:00:12;;;;;;;6.70;1.60;;;;;;;;;;5031341;28;20024;-81
2021/09/19 14:02:39;;;;;;;7.15;1.95;;;;;;;;;;5032165;28;20476;-73
2021/09/19 14:05:06;;;;;;;5.25;1.83;;;;;;;;;;5023756;28;20042;-73
2021/09/19 14:07:32;;;;;;;7.57;1.90;;;;;;;;;;5079153;28;20029;-73
2021/09/19 14:09:58;;;;;;;4.70;1.60;;;;;;;;;;5011599;28;20082;-74
2021/09/19 14:12:24;;;;;;;10.02;1.90;;;;;;;;;;5011458;28;20025;-77
2021/09/19 14:14:50;;;;;;;4.15;1.70;;;;;;;;;;5085797;27;20030;-65
2021/09/19 14:17:16;;;;;;;4.38;1.73;;;;;;;;;;5081359;27;20031;-64
2021/09/19 14:19:42;;;;;;;4.15;1.70;;;;;;;;;;5046072;27;20037;-65
2021/09/19 14:22:08;;;;;;;3.85;1.80;;;;;;;;;;5079524;27;20148;-68
2021/09/19 14:24:35;;;;;;;4.15;2.22;;;;;;;;;;5098538;27;20029;-64
2021/09/19 14:27:01;;;;;;;2.67;2.03;;;;;;;;;;5091917;27;20064;-66
2021/09/19 14:29:26;;;;;;;3.13;1.92;;;;;;;;;;5058593;27;20041;-65
2021/09/19 14:31:54;;;;;;;4.82;1.90;;;;;;;;;;5108306;27;20030;-65
2021/09/19 14:34:20;;;;;;;3.75;1.83;;;;;;;;;;5133267;27;20042;-65
2021/09/19 14:36:47;;;;;;;5.85;1.80;;;;;;;;;;5134029;27;20037;-67
2021/09/19 14:39:13;;;;;;;4.90;1.48;;;;;;;;;;5107897;27;20033;-64
2021/09/19 14:41:39;;;;;;;4.90;1.90;;;;;;;;;;5050379;27;20029;-65